Terminal Aerodrome Forecast
Issued by NWS

Home | Current Version | Previous Version | Text Only | Print | Product List | Glossary On
Versions: 1 2 3 4 5 6 7 8 9 10 11 12 13 14 15 16 17 18 19
000
FTUS46 KSEW 222300
TAFPAE
TAF
KPAE 222323Z 2300/2324 12005KT P6SM SCT045 BKN150
     FM230900 12005KT P6SM BKN070 OVC120
     FM231500 14007KT P6SM -RA SCT025 OVC035
     FM231800 15010KT P6SM -RA OVC025
     FM232100 16012KT 4SM RA BR OVC011=

USA.gov is the U.S. government's official web portal to all federal, state and local government web resources and services.